<?xml version="1.0" encoding="UTF-8" standalone="no" ?>
<gpx xmlns="http://www.topografix.com/GPX/1/1" xmlns:xsi="http://www.w3.org/2001/XMLSchema-instance" xsi:schemaLocation="http://www.topografix.com/GPX/1/1 http://www.topografix.com/GPX/1/1/gpx.xsd" version="1.1" creator="VisuGPX - https://www.visugpx.com">
  <metadata>
    <name>GR20 etape 11</name>
  </metadata>
  <trk>
    <name><![CDATA[GR20 Traversée de la Corse (2020)]]></name>
    <trkseg>
      <trkpt lat="42.07778" lon="9.15074">
        <ele>1613.69</ele>
        <time>2020-03-19T18:00:00Z</time>
      </trkpt>
      <trkpt lat="42.07776" lon="9.15052">
        <ele>1615.524</ele>
        <time>2020-03-19T18:00:20Z</time>
      </trkpt>
      <trkpt lat="42.07764" lon="9.15038">
        <ele>1614.378</ele>
        <time>2020-03-19T18:00:40Z</time>
      </trkpt>
      <trkpt lat="42.0775" lon="9.15024">
        <ele>1612.031</ele>
        <time>2020-03-19T18:01:00Z</time>
      </trkpt>
      <trkpt lat="42.07745" lon="9.15">
        <ele>1602.957</ele>
        <time>2020-03-19T18:01:20Z</time>
      </trkpt>
      <trkpt lat="42.07721" lon="9.15023">
        <ele>1598.746</ele>
        <time>2020-03-19T18:01:40Z</time>
      </trkpt>
      <trkpt lat="42.07702" lon="9.15035">
        <ele>1597.488</ele>
        <time>2020-03-19T18:02:00Z</time>
      </trkpt>
      <trkpt lat="42.0769" lon="9.15016">
        <ele>1598.016</ele>
        <time>2020-03-19T18:02:20Z</time>
      </trkpt>
      <trkpt lat="42.07661" lon="9.15003">
        <ele>1601.608</ele>
        <time>2020-03-19T18:02:40Z</time>
      </trkpt>
      <trkpt lat="42.07645" lon="9.15044">
        <ele>1607.598</ele>
        <time>2020-03-19T18:03:00Z</time>
      </trkpt>
      <trkpt lat="42.07628" lon="9.15052">
        <ele>1610.651</ele>
        <time>2020-03-19T18:03:20Z</time>
      </trkpt>
      <trkpt lat="42.0762" lon="9.15085">
        <ele>1603.933</ele>
        <time>2020-03-19T18:03:40Z</time>
      </trkpt>
      <trkpt lat="42.07611" lon="9.1509">
        <ele>1606.961</ele>
        <time>2020-03-19T18:04:00Z</time>
      </trkpt>
      <trkpt lat="42.07605" lon="9.15109">
        <ele>1605.325</ele>
        <time>2020-03-19T18:04:20Z</time>
      </trkpt>
      <trkpt lat="42.07588" lon="9.15129">
        <ele>1604.069</ele>
        <time>2020-03-19T18:04:40Z</time>
      </trkpt>
      <trkpt lat="42.07583" lon="9.1515">
        <ele>1621.072</ele>
        <time>2020-03-19T18:05:00Z</time>
      </trkpt>
      <trkpt lat="42.07573" lon="9.15164">
        <ele>1616.828</ele>
        <time>2020-03-19T18:05:20Z</time>
      </trkpt>
      <trkpt lat="42.07562" lon="9.15157">
        <ele>1625.548</ele>
        <time>2020-03-19T18:05:40Z</time>
      </trkpt>
      <trkpt lat="42.07541" lon="9.15173">
        <ele>1618.461</ele>
        <time>2020-03-19T18:06:00Z</time>
      </trkpt>
      <trkpt lat="42.07516" lon="9.15203">
        <ele>1620.317</ele>
        <time>2020-03-19T18:06:20Z</time>
      </trkpt>
      <trkpt lat="42.07512" lon="9.15227">
        <ele>1616.808</ele>
        <time>2020-03-19T18:06:40Z</time>
      </trkpt>
      <trkpt lat="42.07497" lon="9.15236">
        <ele>1625.518</ele>
        <time>2020-03-19T18:07:00Z</time>
      </trkpt>
      <trkpt lat="42.07475" lon="9.15242">
        <ele>1628.461</ele>
        <time>2020-03-19T18:07:20Z</time>
      </trkpt>
      <trkpt lat="42.0746" lon="9.15256">
        <ele>1610.783</ele>
        <time>2020-03-19T18:07:40Z</time>
      </trkpt>
      <trkpt lat="42.07436" lon="9.15256">
        <ele>1614.241</ele>
        <time>2020-03-19T18:08:00Z</time>
      </trkpt>
      <trkpt lat="42.07407" lon="9.15282">
        <ele>1607.685</ele>
        <time>2020-03-19T18:08:20Z</time>
      </trkpt>
      <trkpt lat="42.07378" lon="9.15278">
        <ele>1605.089</ele>
        <time>2020-03-19T18:08:40Z</time>
      </trkpt>
      <trkpt lat="42.07346" lon="9.15287">
        <ele>1601.462</ele>
        <time>2020-03-19T18:09:00Z</time>
      </trkpt>
      <trkpt lat="42.07314" lon="9.15263">
        <ele>1580.898</ele>
        <time>2020-03-19T18:09:20Z</time>
      </trkpt>
      <trkpt lat="42.07306" lon="9.15216">
        <ele>1588.164</ele>
        <time>2020-03-19T18:09:40Z</time>
      </trkpt>
      <trkpt lat="42.07269" lon="9.1516">
        <ele>1584.606</ele>
        <time>2020-03-19T18:10:00Z</time>
      </trkpt>
      <trkpt lat="42.07274" lon="9.15123">
        <ele>1595.816</ele>
        <time>2020-03-19T18:10:20Z</time>
      </trkpt>
      <trkpt lat="42.07215" lon="9.15104">
        <ele>1557.808</ele>
        <time>2020-03-19T18:10:40Z</time>
      </trkpt>
      <trkpt lat="42.07173" lon="9.15058">
        <ele>1563.79</ele>
        <time>2020-03-19T18:11:00Z</time>
      </trkpt>
      <trkpt lat="42.07138" lon="9.15056">
        <ele>1541.323</ele>
        <time>2020-03-19T18:11:20Z</time>
      </trkpt>
      <trkpt lat="42.07101" lon="9.15069">
        <ele>1530.845</ele>
        <time>2020-03-19T18:11:40Z</time>
      </trkpt>
      <trkpt lat="42.07097" lon="9.15091">
        <ele>1517.233</ele>
        <time>2020-03-19T18:12:00Z</time>
      </trkpt>
      <trkpt lat="42.07102" lon="9.15127">
        <ele>1514.137</ele>
        <time>2020-03-19T18:12:20Z</time>
      </trkpt>
      <trkpt lat="42.07098" lon="9.15138">
        <ele>1511.041</ele>
        <time>2020-03-19T18:12:40Z</time>
      </trkpt>
      <trkpt lat="42.07109" lon="9.15142">
        <ele>1512.374</ele>
        <time>2020-03-19T18:13:00Z</time>
      </trkpt>
      <trkpt lat="42.07101" lon="9.15158">
        <ele>1506.26</ele>
        <time>2020-03-19T18:13:20Z</time>
      </trkpt>
      <trkpt lat="42.07112" lon="9.15168">
        <ele>1496.349</ele>
        <time>2020-03-19T18:13:40Z</time>
      </trkpt>
      <trkpt lat="42.07111" lon="9.1519">
        <ele>1494.802</ele>
        <time>2020-03-19T18:14:00Z</time>
      </trkpt>
      <trkpt lat="42.07127" lon="9.15222">
        <ele>1493.422</ele>
        <time>2020-03-19T18:14:20Z</time>
      </trkpt>
      <trkpt lat="42.07129" lon="9.15271">
        <ele>1478.108</ele>
        <time>2020-03-19T18:14:40Z</time>
      </trkpt>
      <trkpt lat="42.07148" lon="9.1533">
        <ele>1475.278</ele>
        <time>2020-03-19T18:15:00Z</time>
      </trkpt>
      <trkpt lat="42.07148" lon="9.15381">
        <ele>1461.991</ele>
        <time>2020-03-19T18:15:20Z</time>
      </trkpt>
      <trkpt lat="42.07167" lon="9.15442">
        <ele>1469.283</ele>
        <time>2020-03-19T18:15:40Z</time>
      </trkpt>
      <trkpt lat="42.07158" lon="9.15502">
        <ele>1445.391</ele>
        <time>2020-03-19T18:16:00Z</time>
      </trkpt>
      <trkpt lat="42.07156" lon="9.15558">
        <ele>1441.195</ele>
        <time>2020-03-19T18:16:20Z</time>
      </trkpt>
      <trkpt lat="42.07141" lon="9.15614">
        <ele>1433.259</ele>
        <time>2020-03-19T18:16:40Z</time>
      </trkpt>
      <trkpt lat="42.07151" lon="9.1564">
        <ele>1430.632</ele>
        <time>2020-03-19T18:17:00Z</time>
      </trkpt>
      <trkpt lat="42.07152" lon="9.15685">
        <ele>1418.488</ele>
        <time>2020-03-19T18:17:20Z</time>
      </trkpt>
      <trkpt lat="42.07145" lon="9.15739">
        <ele>1408.617</ele>
        <time>2020-03-19T18:17:40Z</time>
      </trkpt>
      <trkpt lat="42.07154" lon="9.15767">
        <ele>1393.687</ele>
        <time>2020-03-19T18:18:00Z</time>
      </trkpt>
      <trkpt lat="42.07145" lon="9.15786">
        <ele>1389.915</ele>
        <time>2020-03-19T18:18:20Z</time>
      </trkpt>
      <trkpt lat="42.07148" lon="9.15809">
        <ele>1385.808</ele>
        <time>2020-03-19T18:18:40Z</time>
      </trkpt>
      <trkpt lat="42.07142" lon="9.15835">
        <ele>1369.625</ele>
        <time>2020-03-19T18:19:00Z</time>
      </trkpt>
      <trkpt lat="42.0712" lon="9.1584">
        <ele>1367.618</ele>
        <time>2020-03-19T18:19:20Z</time>
      </trkpt>
      <trkpt lat="42.07121" lon="9.15863">
        <ele>1365.09</ele>
        <time>2020-03-19T18:19:40Z</time>
      </trkpt>
      <trkpt lat="42.071" lon="9.15873">
        <ele>1363.118</ele>
        <time>2020-03-19T18:20:00Z</time>
      </trkpt>
      <trkpt lat="42.07082" lon="9.15894">
        <ele>1362.042</ele>
        <time>2020-03-19T18:20:20Z</time>
      </trkpt>
      <trkpt lat="42.06996" lon="9.15951">
        <ele>1370.696</ele>
        <time>2020-03-19T18:20:40Z</time>
      </trkpt>
      <trkpt lat="42.06969" lon="9.16031">
        <ele>1354.479</ele>
        <time>2020-03-19T18:21:00Z</time>
      </trkpt>
      <trkpt lat="42.0689" lon="9.16119">
        <ele>1365.735</ele>
        <time>2020-03-19T18:21:20Z</time>
      </trkpt>
      <trkpt lat="42.06852" lon="9.16181">
        <ele>1367.359</ele>
        <time>2020-03-19T18:21:40Z</time>
      </trkpt>
      <trkpt lat="42.06871" lon="9.16233">
        <ele>1360.603</ele>
        <time>2020-03-19T18:22:00Z</time>
      </trkpt>
      <trkpt lat="42.06862" lon="9.16291">
        <ele>1348.523</ele>
        <time>2020-03-19T18:22:20Z</time>
      </trkpt>
      <trkpt lat="42.06832" lon="9.16333">
        <ele>1351.308</ele>
        <time>2020-03-19T18:22:40Z</time>
      </trkpt>
      <trkpt lat="42.06797" lon="9.16365">
        <ele>1358.439</ele>
        <time>2020-03-19T18:23:00Z</time>
      </trkpt>
      <trkpt lat="42.06752" lon="9.16429">
        <ele>1354.752</ele>
        <time>2020-03-19T18:23:20Z</time>
      </trkpt>
      <trkpt lat="42.06734" lon="9.16534">
        <ele>1366.024</ele>
        <time>2020-03-19T18:23:40Z</time>
      </trkpt>
      <trkpt lat="42.06697" lon="9.16556">
        <ele>1375.332</ele>
        <time>2020-03-19T18:24:00Z</time>
      </trkpt>
      <trkpt lat="42.06673" lon="9.16608">
        <ele>1365.926</ele>
        <time>2020-03-19T18:24:20Z</time>
      </trkpt>
      <trkpt lat="42.06639" lon="9.16624">
        <ele>1375.03</ele>
        <time>2020-03-19T18:24:40Z</time>
      </trkpt>
      <trkpt lat="42.06592" lon="9.16606">
        <ele>1385.633</ele>
        <time>2020-03-19T18:25:00Z</time>
      </trkpt>
      <trkpt lat="42.06538" lon="9.16636">
        <ele>1377.759</ele>
        <time>2020-03-19T18:25:20Z</time>
      </trkpt>
      <trkpt lat="42.06437" lon="9.1663">
        <ele>1378.543</ele>
        <time>2020-03-19T18:25:40Z</time>
      </trkpt>
      <trkpt lat="42.06409" lon="9.16632">
        <ele>1376.764</ele>
        <time>2020-03-19T18:26:00Z</time>
      </trkpt>
      <trkpt lat="42.06373" lon="9.1661">
        <ele>1383.71</ele>
        <time>2020-03-19T18:26:20Z</time>
      </trkpt>
      <trkpt lat="42.06343" lon="9.16614">
        <ele>1384.408</ele>
        <time>2020-03-19T18:26:40Z</time>
      </trkpt>
      <trkpt lat="42.06321" lon="9.16626">
        <ele>1389.828</ele>
        <time>2020-03-19T18:27:00Z</time>
      </trkpt>
      <trkpt lat="42.06286" lon="9.16618">
        <ele>1396.831</ele>
        <time>2020-03-19T18:27:20Z</time>
      </trkpt>
      <trkpt lat="42.06253" lon="9.1665">
        <ele>1391.483</ele>
        <time>2020-03-19T18:27:40Z</time>
      </trkpt>
      <trkpt lat="42.06225" lon="9.16662">
        <ele>1402.521</ele>
        <time>2020-03-19T18:28:00Z</time>
      </trkpt>
      <trkpt lat="42.06198" lon="9.1672">
        <ele>1375.755</ele>
        <time>2020-03-19T18:28:20Z</time>
      </trkpt>
      <trkpt lat="42.06135" lon="9.167">
        <ele>1385.419</ele>
        <time>2020-03-19T18:28:40Z</time>
      </trkpt>
      <trkpt lat="42.0611" lon="9.1665">
        <ele>1410.332</ele>
        <time>2020-03-19T18:29:00Z</time>
      </trkpt>
      <trkpt lat="42.06083" lon="9.16648">
        <ele>1409.038</ele>
        <time>2020-03-19T18:29:20Z</time>
      </trkpt>
      <trkpt lat="42.06069" lon="9.16686">
        <ele>1392.999</ele>
        <time>2020-03-19T18:29:40Z</time>
      </trkpt>
      <trkpt lat="42.06039" lon="9.16668">
        <ele>1396.107</ele>
        <time>2020-03-19T18:30:00Z</time>
      </trkpt>
      <trkpt lat="42.06021" lon="9.16685">
        <ele>1397.427</ele>
        <time>2020-03-19T18:30:20Z</time>
      </trkpt>
      <trkpt lat="42.0599" lon="9.1676">
        <ele>1384.708</ele>
        <time>2020-03-19T18:30:40Z</time>
      </trkpt>
      <trkpt lat="42.05971" lon="9.1679">
        <ele>1379.313</ele>
        <time>2020-03-19T18:31:00Z</time>
      </trkpt>
      <trkpt lat="42.05955" lon="9.16786">
        <ele>1379.066</ele>
        <time>2020-03-19T18:31:20Z</time>
      </trkpt>
      <trkpt lat="42.05941" lon="9.16719">
        <ele>1395.988</ele>
        <time>2020-03-19T18:31:40Z</time>
      </trkpt>
      <trkpt lat="42.05924" lon="9.16625">
        <ele>1422.886</ele>
        <time>2020-03-19T18:32:00Z</time>
      </trkpt>
      <trkpt lat="42.05807" lon="9.16434">
        <ele>1442.26</ele>
        <time>2020-03-19T18:32:20Z</time>
      </trkpt>
      <trkpt lat="42.05766" lon="9.16337">
        <ele>1453.964</ele>
        <time>2020-03-19T18:32:40Z</time>
      </trkpt>
      <trkpt lat="42.05732" lon="9.16288">
        <ele>1451.017</ele>
        <time>2020-03-19T18:33:00Z</time>
      </trkpt>
      <trkpt lat="42.05713" lon="9.16219">
        <ele>1460.163</ele>
        <time>2020-03-19T18:33:20Z</time>
      </trkpt>
      <trkpt lat="42.05683" lon="9.162">
        <ele>1459.317</ele>
        <time>2020-03-19T18:33:40Z</time>
      </trkpt>
      <trkpt lat="42.05626" lon="9.16067">
        <ele>1489.687</ele>
        <time>2020-03-19T18:34:00Z</time>
      </trkpt>
      <trkpt lat="42.05606" lon="9.16107">
        <ele>1476.015</ele>
        <time>2020-03-19T18:34:20Z</time>
      </trkpt>
      <trkpt lat="42.05583" lon="9.16092">
        <ele>1486.008</ele>
        <time>2020-03-19T18:34:40Z</time>
      </trkpt>
      <trkpt lat="42.05581" lon="9.16127">
        <ele>1487.335</ele>
        <time>2020-03-19T18:35:00Z</time>
      </trkpt>
      <trkpt lat="42.0557" lon="9.16165">
        <ele>1479.988</ele>
        <time>2020-03-19T18:35:20Z</time>
      </trkpt>
      <trkpt lat="42.05563" lon="9.1623">
        <ele>1482.38</ele>
        <time>2020-03-19T18:35:40Z</time>
      </trkpt>
      <trkpt lat="42.05545" lon="9.16299">
        <ele>1485.418</ele>
        <time>2020-03-19T18:36:00Z</time>
      </trkpt>
      <trkpt lat="42.05521" lon="9.16331">
        <ele>1494.712</ele>
        <time>2020-03-19T18:36:20Z</time>
      </trkpt>
      <trkpt lat="42.05505" lon="9.16425">
        <ele>1491.236</ele>
        <time>2020-03-19T18:36:40Z</time>
      </trkpt>
      <trkpt lat="42.05459" lon="9.16528">
        <ele>1507.999</ele>
        <time>2020-03-19T18:37:00Z</time>
      </trkpt>
      <trkpt lat="42.05426" lon="9.16562">
        <ele>1511.425</ele>
        <time>2020-03-19T18:37:20Z</time>
      </trkpt>
      <trkpt lat="42.05358" lon="9.16582">
        <ele>1541.027</ele>
        <time>2020-03-19T18:37:40Z</time>
      </trkpt>
      <trkpt lat="42.05322" lon="9.1661">
        <ele>1533.368</ele>
        <time>2020-03-19T18:38:00Z</time>
      </trkpt>
      <trkpt lat="42.05318" lon="9.16684">
        <ele>1506.114</ele>
        <time>2020-03-19T18:38:20Z</time>
      </trkpt>
      <trkpt lat="42.05291" lon="9.16704">
        <ele>1505.208</ele>
        <time>2020-03-19T18:38:40Z</time>
      </trkpt>
      <trkpt lat="42.05229" lon="9.16672">
        <ele>1523.816</ele>
        <time>2020-03-19T18:39:00Z</time>
      </trkpt>
      <trkpt lat="42.05203" lon="9.16704">
        <ele>1524.269</ele>
        <time>2020-03-19T18:39:20Z</time>
      </trkpt>
      <trkpt lat="42.05151" lon="9.1671">
        <ele>1544.171</ele>
        <time>2020-03-19T18:39:40Z</time>
      </trkpt>
      <trkpt lat="42.05136" lon="9.16746">
        <ele>1542.419</ele>
        <time>2020-03-19T18:40:00Z</time>
      </trkpt>
      <trkpt lat="42.05138" lon="9.16814">
        <ele>1533.433</ele>
        <time>2020-03-19T18:40:20Z</time>
      </trkpt>
      <trkpt lat="42.05065" lon="9.16908">
        <ele>1553.987</ele>
        <time>2020-03-19T18:40:40Z</time>
      </trkpt>
      <trkpt lat="42.05043" lon="9.16959">
        <ele>1544.08</ele>
        <time>2020-03-19T18:41:00Z</time>
      </trkpt>
      <trkpt lat="42.05034" lon="9.17056">
        <ele>1519.176</ele>
        <time>2020-03-19T18:41:20Z</time>
      </trkpt>
      <trkpt lat="42.05026" lon="9.17064">
        <ele>1518.243</ele>
        <time>2020-03-19T18:41:40Z</time>
      </trkpt>
      <trkpt lat="42.04979" lon="9.17026">
        <ele>1523.564</ele>
        <time>2020-03-19T18:42:00Z</time>
      </trkpt>
      <trkpt lat="42.04922" lon="9.17012">
        <ele>1523.41</ele>
        <time>2020-03-19T18:42:20Z</time>
      </trkpt>
      <trkpt lat="42.04872" lon="9.16987">
        <ele>1528.908</ele>
        <time>2020-03-19T18:42:40Z</time>
      </trkpt>
      <trkpt lat="42.04871" lon="9.16941">
        <ele>1536.348</ele>
        <time>2020-03-19T18:43:00Z</time>
      </trkpt>
      <trkpt lat="42.04794" lon="9.16828">
        <ele>1562.221</ele>
        <time>2020-03-19T18:43:20Z</time>
      </trkpt>
      <trkpt lat="42.04736" lon="9.16797">
        <ele>1546.113</ele>
        <time>2020-03-19T18:43:40Z</time>
      </trkpt>
      <trkpt lat="42.0469" lon="9.16802">
        <ele>1540.351</ele>
        <time>2020-03-19T18:44:00Z</time>
      </trkpt>
      <trkpt lat="42.04654" lon="9.16817">
        <ele>1525.855</ele>
        <time>2020-03-19T18:44:20Z</time>
      </trkpt>
      <trkpt lat="42.04621" lon="9.16767">
        <ele>1535.099</ele>
        <time>2020-03-19T18:44:40Z</time>
      </trkpt>
      <trkpt lat="42.04571" lon="9.16756">
        <ele>1533.472</ele>
        <time>2020-03-19T18:45:00Z</time>
      </trkpt>
      <trkpt lat="42.04548" lon="9.16714">
        <ele>1544.618</ele>
        <time>2020-03-19T18:45:20Z</time>
      </trkpt>
      <trkpt lat="42.04507" lon="9.16698">
        <ele>1544.917</ele>
        <time>2020-03-19T18:45:40Z</time>
      </trkpt>
      <trkpt lat="42.04493" lon="9.1667">
        <ele>1547.487</ele>
        <time>2020-03-19T18:46:00Z</time>
      </trkpt>
      <trkpt lat="42.04471" lon="9.16664">
        <ele>1557.215</ele>
        <time>2020-03-19T18:46:20Z</time>
      </trkpt>
      <trkpt lat="42.04445" lon="9.16683">
        <ele>1548.408</ele>
        <time>2020-03-19T18:46:40Z</time>
      </trkpt>
      <trkpt lat="42.04424" lon="9.16668">
        <ele>1553.335</ele>
        <time>2020-03-19T18:47:00Z</time>
      </trkpt>
      <trkpt lat="42.04403" lon="9.16701">
        <ele>1557.778</ele>
        <time>2020-03-19T18:47:20Z</time>
      </trkpt>
      <trkpt lat="42.04381" lon="9.16765">
        <ele>1543.35</ele>
        <time>2020-03-19T18:47:40Z</time>
      </trkpt>
      <trkpt lat="42.04342" lon="9.16759">
        <ele>1551.588</ele>
        <time>2020-03-19T18:48:00Z</time>
      </trkpt>
      <trkpt lat="42.04292" lon="9.16802">
        <ele>1544.832</ele>
        <time>2020-03-19T18:48:20Z</time>
      </trkpt>
      <trkpt lat="42.04251" lon="9.16757">
        <ele>1554.236</ele>
        <time>2020-03-19T18:48:40Z</time>
      </trkpt>
      <trkpt lat="42.04205" lon="9.16729">
        <ele>1568.189</ele>
        <time>2020-03-19T18:49:00Z</time>
      </trkpt>
      <trkpt lat="42.04183" lon="9.16741">
        <ele>1564.035</ele>
        <time>2020-03-19T18:49:20Z</time>
      </trkpt>
      <trkpt lat="42.04149" lon="9.16817">
        <ele>1561.612</ele>
        <time>2020-03-19T18:49:40Z</time>
      </trkpt>
      <trkpt lat="42.04142" lon="9.16856">
        <ele>1556.732</ele>
        <time>2020-03-19T18:50:00Z</time>
      </trkpt>
      <trkpt lat="42.0412" lon="9.16894">
        <ele>1559.805</ele>
        <time>2020-03-19T18:50:20Z</time>
      </trkpt>
      <trkpt lat="42.04111" lon="9.16955">
        <ele>1553.408</ele>
        <time>2020-03-19T18:50:40Z</time>
      </trkpt>
      <trkpt lat="42.04095" lon="9.16985">
        <ele>1557.715</ele>
        <time>2020-03-19T18:51:00Z</time>
      </trkpt>
      <trkpt lat="42.04079" lon="9.17004">
        <ele>1567.978</ele>
        <time>2020-03-19T18:51:20Z</time>
      </trkpt>
      <trkpt lat="42.04069" lon="9.17038">
        <ele>1569.85</ele>
        <time>2020-03-19T18:51:40Z</time>
      </trkpt>
      <trkpt lat="42.04052" lon="9.17064">
        <ele>1569.158</ele>
        <time>2020-03-19T18:52:00Z</time>
      </trkpt>
      <trkpt lat="42.04037" lon="9.17096">
        <ele>1557.792</ele>
        <time>2020-03-19T18:52:20Z</time>
      </trkpt>
      <trkpt lat="42.04019" lon="9.17135">
        <ele>1556.016</ele>
        <time>2020-03-19T18:52:40Z</time>
      </trkpt>
      <trkpt lat="42.03988" lon="9.17211">
        <ele>1563.969</ele>
        <time>2020-03-19T18:53:00Z</time>
      </trkpt>
      <trkpt lat="42.03961" lon="9.17249">
        <ele>1565.045</ele>
        <time>2020-03-19T18:53:20Z</time>
      </trkpt>
      <trkpt lat="42.03922" lon="9.17266">
        <ele>1564.796</ele>
        <time>2020-03-19T18:53:40Z</time>
      </trkpt>
      <trkpt lat="42.03886" lon="9.17243">
        <ele>1578.331</ele>
        <time>2020-03-19T18:54:00Z</time>
      </trkpt>
      <trkpt lat="42.03805" lon="9.17155">
        <ele>1586.124</ele>
        <time>2020-03-19T18:54:20Z</time>
      </trkpt>
      <trkpt lat="42.03768" lon="9.17036">
        <ele>1605.308</ele>
        <time>2020-03-19T18:54:40Z</time>
      </trkpt>
      <trkpt lat="42.03748" lon="9.1701">
        <ele>1600.683</ele>
        <time>2020-03-19T18:55:00Z</time>
      </trkpt>
      <trkpt lat="42.03704" lon="9.16998">
        <ele>1604.326</ele>
        <time>2020-03-19T18:55:20Z</time>
      </trkpt>
      <trkpt lat="42.03692" lon="9.16965">
        <ele>1606.328</ele>
        <time>2020-03-19T18:55:40Z</time>
      </trkpt>
      <trkpt lat="42.03669" lon="9.16959">
        <ele>1605.586</ele>
        <time>2020-03-19T18:56:00Z</time>
      </trkpt>
      <trkpt lat="42.03642" lon="9.16954">
        <ele>1595.17</ele>
        <time>2020-03-19T18:56:20Z</time>
      </trkpt>
      <trkpt lat="42.03521" lon="9.1689">
        <ele>1589.464</ele>
        <time>2020-03-19T18:56:40Z</time>
      </trkpt>
      <trkpt lat="42.03495" lon="9.16858">
        <ele>1581.327</ele>
        <time>2020-03-19T18:57:00Z</time>
      </trkpt>
      <trkpt lat="42.03492" lon="9.16812">
        <ele>1588.363</ele>
        <time>2020-03-19T18:57:20Z</time>
      </trkpt>
      <trkpt lat="42.03464" lon="9.16815">
        <ele>1585.859</ele>
        <time>2020-03-19T18:57:40Z</time>
      </trkpt>
      <trkpt lat="42.03417" lon="9.16759">
        <ele>1585.303</ele>
        <time>2020-03-19T18:58:00Z</time>
      </trkpt>
      <trkpt lat="42.0334" lon="9.16614">
        <ele>1574.823</ele>
        <time>2020-03-19T18:58:20Z</time>
      </trkpt>
      <trkpt lat="42.03338" lon="9.16586">
        <ele>1571.608</ele>
        <time>2020-03-19T18:58:40Z</time>
      </trkpt>
      <trkpt lat="42.03328" lon="9.16563">
        <ele>1567.319</ele>
        <time>2020-03-19T18:59:00Z</time>
      </trkpt>
      <trkpt lat="42.03311" lon="9.1657">
        <ele>1566.482</ele>
        <time>2020-03-19T18:59:20Z</time>
      </trkpt>
      <trkpt lat="42.03303" lon="9.16607">
        <ele>1563.824</ele>
        <time>2020-03-19T18:59:40Z</time>
      </trkpt>
      <trkpt lat="42.03242" lon="9.16611">
        <ele>1549.322</ele>
        <time>2020-03-19T19:00:00Z</time>
      </trkpt>
      <trkpt lat="42.03217" lon="9.16582">
        <ele>1552.376</ele>
        <time>2020-03-19T19:00:20Z</time>
      </trkpt>
      <trkpt lat="42.03185" lon="9.16582">
        <ele>1546.85</ele>
        <time>2020-03-19T19:00:40Z</time>
      </trkpt>
      <trkpt lat="42.03148" lon="9.16517">
        <ele>1529.653</ele>
        <time>2020-03-19T19:01:00Z</time>
      </trkpt>
      <trkpt lat="42.03144" lon="9.16621">
        <ele>1517.549</ele>
        <time>2020-03-19T19:01:20Z</time>
      </trkpt>
      <trkpt lat="42.03132" lon="9.16596">
        <ele>1518.146</ele>
        <time>2020-03-19T19:01:40Z</time>
      </trkpt>
      <trkpt lat="42.03121" lon="9.16556">
        <ele>1521.988</ele>
        <time>2020-03-19T19:02:00Z</time>
      </trkpt>
      <trkpt lat="42.0307" lon="9.165">
        <ele>1492.716</ele>
        <time>2020-03-19T19:02:20Z</time>
      </trkpt>
      <trkpt lat="42.03065" lon="9.16432">
        <ele>1477.408</ele>
        <time>2020-03-19T19:02:40Z</time>
      </trkpt>
      <trkpt lat="42.03046" lon="9.16436">
        <ele>1471.948</ele>
        <time>2020-03-19T19:03:00Z</time>
      </trkpt>
      <trkpt lat="42.0303" lon="9.16464">
        <ele>1469.211</ele>
        <time>2020-03-19T19:03:20Z</time>
      </trkpt>
      <trkpt lat="42.03043" lon="9.16504">
        <ele>1477.733</ele>
        <time>2020-03-19T19:03:40Z</time>
      </trkpt>
      <trkpt lat="42.0304" lon="9.1653">
        <ele>1475.891</ele>
        <time>2020-03-19T19:04:00Z</time>
      </trkpt>
      <trkpt lat="42.03046" lon="9.16551">
        <ele>1477.645</ele>
        <time>2020-03-19T19:04:20Z</time>
      </trkpt>
      <trkpt lat="42.03039" lon="9.16583">
        <ele>1474.049</ele>
        <time>2020-03-19T19:04:40Z</time>
      </trkpt>
      <trkpt lat="42.03046" lon="9.16615">
        <ele>1468.422</ele>
        <time>2020-03-19T19:05:00Z</time>
      </trkpt>
      <trkpt lat="42.03046" lon="9.16663">
        <ele>1464.638</ele>
        <time>2020-03-19T19:05:20Z</time>
      </trkpt>
      <trkpt lat="42.03032" lon="9.16664">
        <ele>1457.724</ele>
        <time>2020-03-19T19:05:40Z</time>
      </trkpt>
      <trkpt lat="42.03004" lon="9.16585">
        <ele>1449.204</ele>
        <time>2020-03-19T19:06:00Z</time>
      </trkpt>
      <trkpt lat="42.02968" lon="9.16434">
        <ele>1428.214</ele>
        <time>2020-03-19T19:06:20Z</time>
      </trkpt>
      <trkpt lat="42.02964" lon="9.16384">
        <ele>1427.208</ele>
        <time>2020-03-19T19:06:40Z</time>
      </trkpt>
      <trkpt lat="42.02979" lon="9.16346">
        <ele>1433.856</ele>
        <time>2020-03-19T19:07:00Z</time>
      </trkpt>
      <trkpt lat="42.02934" lon="9.16305">
        <ele>1426.969</ele>
        <time>2020-03-19T19:07:20Z</time>
      </trkpt>
      <trkpt lat="42.02906" lon="9.16223">
        <ele>1413.481</ele>
        <time>2020-03-19T19:07:40Z</time>
      </trkpt>
      <trkpt lat="42.0287" lon="9.16191">
        <ele>1410.189</ele>
        <time>2020-03-19T19:08:00Z</time>
      </trkpt>
      <trkpt lat="42.02854" lon="9.16152">
        <ele>1415.793</ele>
        <time>2020-03-19T19:08:20Z</time>
      </trkpt>
      <trkpt lat="42.02833" lon="9.16079">
        <ele>1418.877</ele>
        <time>2020-03-19T19:08:40Z</time>
      </trkpt>
      <trkpt lat="42.02824" lon="9.16064">
        <ele>1421.35</ele>
        <time>2020-03-19T19:09:00Z</time>
      </trkpt>
      <trkpt lat="42.02827" lon="9.16023">
        <ele>1428.996</ele>
        <time>2020-03-19T19:09:20Z</time>
      </trkpt>
      <trkpt lat="42.02809" lon="9.15971">
        <ele>1438.192</ele>
        <time>2020-03-19T19:09:40Z</time>
      </trkpt>
      <trkpt lat="42.02774" lon="9.15945">
        <ele>1436.873</ele>
        <time>2020-03-19T19:10:00Z</time>
      </trkpt>
      <trkpt lat="42.0274" lon="9.15962">
        <ele>1428.42</ele>
        <time>2020-03-19T19:10:20Z</time>
      </trkpt>
      <trkpt lat="42.0269" lon="9.15967">
        <ele>1426.708</ele>
        <time>2020-03-19T19:10:40Z</time>
      </trkpt>
      <trkpt lat="42.02654" lon="9.16003">
        <ele>1434.963</ele>
        <time>2020-03-19T19:11:00Z</time>
      </trkpt>
      <trkpt lat="42.02695" lon="9.16083">
        <ele>1422.236</ele>
        <time>2020-03-19T19:11:20Z</time>
      </trkpt>
      <trkpt lat="42.02737" lon="9.16148">
        <ele>1411.788</ele>
        <time>2020-03-19T19:11:40Z</time>
      </trkpt>
      <trkpt lat="42.0274" lon="9.16221">
        <ele>1412.066</ele>
        <time>2020-03-19T19:12:00Z</time>
      </trkpt>
      <trkpt lat="42.02748" lon="9.16247">
        <ele>1400.77</ele>
        <time>2020-03-19T19:12:20Z</time>
      </trkpt>
      <trkpt lat="42.02738" lon="9.1629">
        <ele>1410.334</ele>
        <time>2020-03-19T19:12:40Z</time>
      </trkpt>
      <trkpt lat="42.0274" lon="9.1635">
        <ele>1403.937</ele>
        <time>2020-03-19T19:13:00Z</time>
      </trkpt>
      <trkpt lat="42.0273" lon="9.1638">
        <ele>1408.313</ele>
        <time>2020-03-19T19:13:20Z</time>
      </trkpt>
      <trkpt lat="42.02722" lon="9.16384">
        <ele>1410.133</ele>
        <time>2020-03-19T19:13:40Z</time>
      </trkpt>
      <trkpt lat="42.02736" lon="9.16427">
        <ele>1404.423</ele>
        <time>2020-03-19T19:14:00Z</time>
      </trkpt>
      <trkpt lat="42.02751" lon="9.165">
        <ele>1396.515</ele>
        <time>2020-03-19T19:14:20Z</time>
      </trkpt>
      <trkpt lat="42.02752" lon="9.16601">
        <ele>1395.108</ele>
        <time>2020-03-19T19:14:40Z</time>
      </trkpt>
      <trkpt lat="42.02756" lon="9.16672">
        <ele>1402.737</ele>
        <time>2020-03-19T19:15:00Z</time>
      </trkpt>
      <trkpt lat="42.02747" lon="9.16718">
        <ele>1426.04</ele>
        <time>2020-03-19T19:15:20Z</time>
      </trkpt>
      <trkpt lat="42.02752" lon="9.16784">
        <ele>1398.462</ele>
        <time>2020-03-19T19:15:40Z</time>
      </trkpt>
      <trkpt lat="42.0273" lon="9.16855">
        <ele>1433.25</ele>
        <time>2020-03-19T19:16:00Z</time>
      </trkpt>
      <trkpt lat="42.02733" lon="9.16899">
        <ele>1431.474</ele>
        <time>2020-03-19T19:16:20Z</time>
      </trkpt>
      <trkpt lat="42.0272" lon="9.16976">
        <ele>1436.698</ele>
        <time>2020-03-19T19:16:40Z</time>
      </trkpt>
      <trkpt lat="42.0273" lon="9.17028">
        <ele>1433.311</ele>
        <time>2020-03-19T19:17:00Z</time>
      </trkpt>
      <trkpt lat="42.02733" lon="9.17073">
        <ele>1430.897</ele>
        <time>2020-03-19T19:17:20Z</time>
      </trkpt>
      <trkpt lat="42.02708" lon="9.17133">
        <ele>1431.869</ele>
        <time>2020-03-19T19:17:40Z</time>
      </trkpt>
      <trkpt lat="42.02729" lon="9.17178">
        <ele>1426.304</ele>
        <time>2020-03-19T19:18:00Z</time>
      </trkpt>
      <trkpt lat="42.02744" lon="9.17275">
        <ele>1422.024</ele>
        <time>2020-03-19T19:18:20Z</time>
      </trkpt>
      <trkpt lat="42.02748" lon="9.17327">
        <ele>1423.708</ele>
        <time>2020-03-19T19:18:40Z</time>
      </trkpt>
      <trkpt lat="42.02765" lon="9.17394">
        <ele>1418.93</ele>
        <time>2020-03-19T19:19:00Z</time>
      </trkpt>
      <trkpt lat="42.0275" lon="9.1751">
        <ele>1414.233</ele>
        <time>2020-03-19T19:19:20Z</time>
      </trkpt>
      <trkpt lat="42.02738" lon="9.17571">
        <ele>1403.295</ele>
        <time>2020-03-19T19:19:40Z</time>
      </trkpt>
      <trkpt lat="42.02727" lon="9.17881">
        <ele>1381.073</ele>
        <time>2020-03-19T19:20:00Z</time>
      </trkpt>
      <trkpt lat="42.02756" lon="9.17969">
        <ele>1392.467</ele>
        <time>2020-03-19T19:20:20Z</time>
      </trkpt>
      <trkpt lat="42.02745" lon="9.17992">
        <ele>1375.411</ele>
        <time>2020-03-19T19:20:40Z</time>
      </trkpt>
      <trkpt lat="42.02734" lon="9.18071">
        <ele>1367.154</ele>
        <time>2020-03-19T19:21:00Z</time>
      </trkpt>
      <trkpt lat="42.0274" lon="9.18129">
        <ele>1360.68</ele>
        <time>2020-03-19T19:21:20Z</time>
      </trkpt>
      <trkpt lat="42.02737" lon="9.18188">
        <ele>1354.073</ele>
        <time>2020-03-19T19:21:40Z</time>
      </trkpt>
      <trkpt lat="42.02722" lon="9.18233">
        <ele>1350.085</ele>
        <time>2020-03-19T19:22:00Z</time>
      </trkpt>
      <trkpt lat="42.02718" lon="9.18299">
        <ele>1340.913</ele>
        <time>2020-03-19T19:22:20Z</time>
      </trkpt>
      <trkpt lat="42.02702" lon="9.18351">
        <ele>1330.208</ele>
        <time>2020-03-19T19:22:40Z</time>
      </trkpt>
      <trkpt lat="42.02712" lon="9.18448">
        <ele>1319.511</ele>
        <time>2020-03-19T19:23:00Z</time>
      </trkpt>
      <trkpt lat="42.02733" lon="9.18512">
        <ele>1313.144</ele>
        <time>2020-03-19T19:23:20Z</time>
      </trkpt>
      <trkpt lat="42.02744" lon="9.1856">
        <ele>1309.046</ele>
        <time>2020-03-19T19:23:40Z</time>
      </trkpt>
      <trkpt lat="42.02756" lon="9.18592">
        <ele>1305.424</ele>
        <time>2020-03-19T19:24:00Z</time>
      </trkpt>
      <trkpt lat="42.02769" lon="9.18639">
        <ele>1304.118</ele>
        <time>2020-03-19T19:24:20Z</time>
      </trkpt>
      <trkpt lat="42.02797" lon="9.18695">
        <ele>1298.252</ele>
        <time>2020-03-19T19:24:40Z</time>
      </trkpt>
      <trkpt lat="42.02831" lon="9.1881">
        <ele>1290.135</ele>
        <time>2020-03-19T19:25:00Z</time>
      </trkpt>
      <trkpt lat="42.02894" lon="9.19055">
        <ele>1281.991</ele>
        <time>2020-03-19T19:25:20Z</time>
      </trkpt>
      <trkpt lat="42.02916" lon="9.19089">
        <ele>1283.947</ele>
        <time>2020-03-19T19:25:40Z</time>
      </trkpt>
      <trkpt lat="42.02913" lon="9.19154">
        <ele>1284.929</ele>
        <time>2020-03-19T19:26:00Z</time>
      </trkpt>
      <trkpt lat="42.02898" lon="9.19234">
        <ele>1287.621</ele>
        <time>2020-03-19T19:26:20Z</time>
      </trkpt>
      <trkpt lat="42.02855" lon="9.1933">
        <ele>1285.808</ele>
        <time>2020-03-19T19:26:40Z</time>
      </trkpt>
      <trkpt lat="42.02805" lon="9.19404">
        <ele>1281.248</ele>
        <time>2020-03-19T19:27:00Z</time>
      </trkpt>
      <trkpt lat="42.02811" lon="9.19479">
        <ele>1290.921</ele>
        <time>2020-03-19T19:27:20Z</time>
      </trkpt>
      <trkpt lat="42.02824" lon="9.195">
        <ele>1293.993</ele>
        <time>2020-03-19T19:27:40Z</time>
      </trkpt>
      <trkpt lat="42.02749" lon="9.19561">
        <ele>1304.351</ele>
        <time>2020-03-19T19:28:00Z</time>
      </trkpt>
      <trkpt lat="42.02686" lon="9.19601">
        <ele>1315.815</ele>
        <time>2020-03-19T19:28:20Z</time>
      </trkpt>
      <trkpt lat="42.02583" lon="9.1972">
        <ele>1327.119</ele>
        <time>2020-03-19T19:28:40Z</time>
      </trkpt>
      <trkpt lat="42.02537" lon="9.19756">
        <ele>1345.762</ele>
        <time>2020-03-19T19:29:00Z</time>
      </trkpt>
      <trkpt lat="42.02498" lon="9.19765">
        <ele>1337.338</ele>
        <time>2020-03-19T19:29:20Z</time>
      </trkpt>
      <trkpt lat="42.02465" lon="9.19757">
        <ele>1339.584</ele>
        <time>2020-03-19T19:29:40Z</time>
      </trkpt>
      <trkpt lat="42.02414" lon="9.19808">
        <ele>1341.307</ele>
        <time>2020-03-19T19:30:00Z</time>
      </trkpt>
      <trkpt lat="42.02393" lon="9.19868">
        <ele>1358.317</ele>
        <time>2020-03-19T19:30:20Z</time>
      </trkpt>
      <trkpt lat="42.02393" lon="9.1992">
        <ele>1376.008</ele>
        <time>2020-03-19T19:30:40Z</time>
      </trkpt>
      <trkpt lat="42.02423" lon="9.19954">
        <ele>1387.492</ele>
        <time>2020-03-19T19:31:00Z</time>
      </trkpt>
      <trkpt lat="42.02473" lon="9.19969">
        <ele>1392.515</ele>
        <time>2020-03-19T19:31:20Z</time>
      </trkpt>
      <trkpt lat="42.02516" lon="9.20006">
        <ele>1411.377</ele>
        <time>2020-03-19T19:31:40Z</time>
      </trkpt>
      <trkpt lat="42.02537" lon="9.20034">
        <ele>1416.775</ele>
        <time>2020-03-19T19:32:00Z</time>
      </trkpt>
      <trkpt lat="42.02637" lon="9.20064">
        <ele>1434.149</ele>
        <time>2020-03-19T19:32:20Z</time>
      </trkpt>
      <trkpt lat="42.02662" lon="9.20084">
        <ele>1441.063</ele>
        <time>2020-03-19T19:32:40Z</time>
      </trkpt>
      <trkpt lat="42.02688" lon="9.20144">
        <ele>1448.736</ele>
        <time>2020-03-19T19:33:00Z</time>
      </trkpt>
      <trkpt lat="42.02688" lon="9.20185">
        <ele>1454.622</ele>
        <time>2020-03-19T19:33:20Z</time>
      </trkpt>
      <trkpt lat="42.02673" lon="9.20239">
        <ele>1459.119</ele>
        <time>2020-03-19T19:33:40Z</time>
      </trkpt>
      <trkpt lat="42.02654" lon="9.20262">
        <ele>1461.709</ele>
        <time>2020-03-19T19:34:00Z</time>
      </trkpt>
      <trkpt lat="42.02652" lon="9.20297">
        <ele>1466.019</ele>
        <time>2020-03-19T19:34:20Z</time>
      </trkpt>
      <trkpt lat="42.0264" lon="9.20325">
        <ele>1468.308</ele>
        <time>2020-03-19T19:34:40Z</time>
      </trkpt>
      <trkpt lat="42.0263" lon="9.20394">
        <ele>1479.125</ele>
        <time>2020-03-19T19:35:00Z</time>
      </trkpt>
      <trkpt lat="42.02615" lon="9.20426">
        <ele>1482.918</ele>
        <time>2020-03-19T19:35:20Z</time>
      </trkpt>
      <trkpt lat="42.02608" lon="9.20482">
        <ele>1483.08</ele>
        <time>2020-03-19T19:35:40Z</time>
      </trkpt>
      <trkpt lat="42.02622" lon="9.20497">
        <ele>1484.678</ele>
        <time>2020-03-19T19:36:00Z</time>
      </trkpt>
      <trkpt lat="42.02634" lon="9.20529">
        <ele>1483.382</ele>
        <time>2020-03-19T19:36:20Z</time>
      </trkpt>
      <trkpt lat="42.02638" lon="9.20544">
        <ele>1482.716</ele>
        <time>2020-03-19T19:36:40Z</time>
      </trkpt>
      <trkpt lat="42.02654" lon="9.20583">
        <ele>1482.449</ele>
        <time>2020-03-19T19:37:00Z</time>
      </trkpt>
      <trkpt lat="42.02687" lon="9.20581">
        <ele>1486.445</ele>
        <time>2020-03-19T19:37:20Z</time>
      </trkpt>
      <trkpt lat="42.02716" lon="9.20604">
        <ele>1483.616</ele>
        <time>2020-03-19T19:37:40Z</time>
      </trkpt>
      <trkpt lat="42.02726" lon="9.20634">
        <ele>1483.276</ele>
        <time>2020-03-19T19:38:00Z</time>
      </trkpt>
      <trkpt lat="42.02686" lon="9.20695">
        <ele>1482.413</ele>
        <time>2020-03-19T19:38:20Z</time>
      </trkpt>
      <trkpt lat="42.02657" lon="9.20723">
        <ele>1475.908</ele>
        <time>2020-03-19T19:38:40Z</time>
      </trkpt>
      <trkpt lat="42.02637" lon="9.20768">
        <ele>1479.555</ele>
        <time>2020-03-19T19:39:00Z</time>
      </trkpt>
      <trkpt lat="42.02625" lon="9.20798">
        <ele>1480.118</ele>
        <time>2020-03-19T19:39:20Z</time>
      </trkpt>
      <trkpt lat="42.02586" lon="9.20839">
        <ele>1481.05</ele>
        <time>2020-03-19T19:39:40Z</time>
      </trkpt>
      <trkpt lat="42.02589" lon="9.20914">
        <ele>1489.888</ele>
        <time>2020-03-19T19:40:00Z</time>
      </trkpt>
      <trkpt lat="42.02532" lon="9.20929">
        <ele>1491.882</ele>
        <time>2020-03-19T19:40:20Z</time>
      </trkpt>
      <trkpt lat="42.02473" lon="9.20992">
        <ele>1497.966</ele>
        <time>2020-03-19T19:40:40Z</time>
      </trkpt>
      <trkpt lat="42.02441" lon="9.21024">
        <ele>1508.419</ele>
        <time>2020-03-19T19:41:00Z</time>
      </trkpt>
      <trkpt lat="42.02432" lon="9.20992">
        <ele>1500.715</ele>
        <time>2020-03-19T19:41:20Z</time>
      </trkpt>
      <trkpt lat="42.02396" lon="9.20953">
        <ele>1500.659</ele>
        <time>2020-03-19T19:41:40Z</time>
      </trkpt>
      <trkpt lat="42.02336" lon="9.20964">
        <ele>1502.903</ele>
        <time>2020-03-19T19:42:00Z</time>
      </trkpt>
      <trkpt lat="42.02278" lon="9.20867">
        <ele>1506.823</ele>
        <time>2020-03-19T19:42:20Z</time>
      </trkpt>
      <trkpt lat="42.0222" lon="9.20868">
        <ele>1530.108</ele>
        <time>2020-03-19T19:42:40Z</time>
      </trkpt>
      <trkpt lat="42.02128" lon="9.2091">
        <ele>1561.359</ele>
        <time>2020-03-19T19:43:00Z</time>
      </trkpt>
      <trkpt lat="42.02095" lon="9.20981">
        <ele>1592.492</ele>
        <time>2020-03-19T19:43:20Z</time>
      </trkpt>
      <trkpt lat="42.02043" lon="9.21137">
        <ele>1616.544</ele>
        <time>2020-03-19T19:43:40Z</time>
      </trkpt>
      <trkpt lat="42.02022" lon="9.21157">
        <ele>1619.372</ele>
        <time>2020-03-19T19:44:00Z</time>
      </trkpt>
      <trkpt lat="42.02008" lon="9.21215">
        <ele>1632.886</ele>
        <time>2020-03-19T19:44:20Z</time>
      </trkpt>
      <trkpt lat="42.01986" lon="9.2123">
        <ele>1630.31</ele>
        <time>2020-03-19T19:44:40Z</time>
      </trkpt>
      <trkpt lat="42.01973" lon="9.21316">
        <ele>1646.263</ele>
        <time>2020-03-19T19:45:00Z</time>
      </trkpt>
      <trkpt lat="42.01946" lon="9.21375">
        <ele>1661.469</ele>
        <time>2020-03-19T19:45:20Z</time>
      </trkpt>
      <trkpt lat="42.01954" lon="9.21391">
        <ele>1666.011</ele>
        <time>2020-03-19T19:45:40Z</time>
      </trkpt>
      <trkpt lat="42.0189" lon="9.21572">
        <ele>1693.221</ele>
        <time>2020-03-19T19:46:00Z</time>
      </trkpt>
      <trkpt lat="42.01874" lon="9.21601">
        <ele>1708.803</ele>
        <time>2020-03-19T19:46:20Z</time>
      </trkpt>
      <trkpt lat="42.0186" lon="9.21667">
        <ele>1731.508</ele>
        <time>2020-03-19T19:46:40Z</time>
      </trkpt>
      <trkpt lat="42.0186" lon="9.21687">
        <ele>1734.845</ele>
        <time>2020-03-19T19:47:00Z</time>
      </trkpt>
      <trkpt lat="42.01838" lon="9.21712">
        <ele>1738.148</ele>
        <time>2020-03-19T19:47:20Z</time>
      </trkpt>
      <trkpt lat="42.01849" lon="9.21721">
        <ele>1740.81</ele>
        <time>2020-03-19T19:47:40Z</time>
      </trkpt>
      <trkpt lat="42.01841" lon="9.21733">
        <ele>1742.298</ele>
        <time>2020-03-19T19:48:00Z</time>
      </trkpt>
      <trkpt lat="42.01856" lon="9.21733">
        <ele>1743.132</ele>
        <time>2020-03-19T19:48:20Z</time>
      </trkpt>
      <trkpt lat="42.01858" lon="9.21747">
        <ele>1744.576</ele>
        <time>2020-03-19T19:48:40Z</time>
      </trkpt>
      <trkpt lat="42.01881" lon="9.21751">
        <ele>1767.159</ele>
        <time>2020-03-19T19:49:00Z</time>
      </trkpt>
      <trkpt lat="42.01853" lon="9.21816">
        <ele>1773.535</ele>
        <time>2020-03-19T19:49:20Z</time>
      </trkpt>
      <trkpt lat="42.01856" lon="9.2184">
        <ele>1791.642</ele>
        <time>2020-03-19T19:49:40Z</time>
      </trkpt>
      <trkpt lat="42.01862" lon="9.21847">
        <ele>1794.422</ele>
        <time>2020-03-19T19:50:00Z</time>
      </trkpt>
      <trkpt lat="42.01856" lon="9.21862">
        <ele>1796.614</ele>
        <time>2020-03-19T19:50:20Z</time>
      </trkpt>
      <trkpt lat="42.01856" lon="9.2188">
        <ele>1800.508</ele>
        <time>2020-03-19T19:50:40Z</time>
      </trkpt>
      <trkpt lat="42.01881" lon="9.21901">
        <ele>1806.728</ele>
        <time>2020-03-19T19:51:00Z</time>
      </trkpt>
      <trkpt lat="42.01846" lon="9.21954">
        <ele>1825.581</ele>
        <time>2020-03-19T19:51:20Z</time>
      </trkpt>
      <trkpt lat="42.01851" lon="9.21968">
        <ele>1828.733</ele>
        <time>2020-03-19T19:51:40Z</time>
      </trkpt>
      <trkpt lat="42.0183" lon="9.21979">
        <ele>1831.411</ele>
        <time>2020-03-19T19:52:00Z</time>
      </trkpt>
      <trkpt lat="42.01826" lon="9.22001">
        <ele>1835.895</ele>
        <time>2020-03-19T19:52:20Z</time>
      </trkpt>
      <trkpt lat="42.01802" lon="9.2205">
        <ele>1839.329</ele>
        <time>2020-03-19T19:52:40Z</time>
      </trkpt>
      <trkpt lat="42.01687" lon="9.22061">
        <ele>1843.152</ele>
        <time>2020-03-19T19:53:00Z</time>
      </trkpt>
      <trkpt lat="42.01605" lon="9.22016">
        <ele>1844.878</ele>
        <time>2020-03-19T19:53:20Z</time>
      </trkpt>
      <trkpt lat="42.01579" lon="9.2201">
        <ele>1842.573</ele>
        <time>2020-03-19T19:53:40Z</time>
      </trkpt>
      <trkpt lat="42.01517" lon="9.21984">
        <ele>1845.485</ele>
        <time>2020-03-19T19:54:00Z</time>
      </trkpt>
      <trkpt lat="42.01501" lon="9.21981">
        <ele>1844.213</ele>
        <time>2020-03-19T19:54:20Z</time>
      </trkpt>
      <trkpt lat="42.01471" lon="9.2196">
        <ele>1844.308</ele>
        <time>2020-03-19T19:54:40Z</time>
      </trkpt>
      <trkpt lat="42.01437" lon="9.21956">
        <ele>1843.491</ele>
        <time>2020-03-19T19:55:00Z</time>
      </trkpt>
      <trkpt lat="42.01385" lon="9.21918">
        <ele>1844.284</ele>
        <time>2020-03-19T19:55:20Z</time>
      </trkpt>
      <trkpt lat="42.01369" lon="9.21924">
        <ele>1843.666</ele>
        <time>2020-03-19T19:55:40Z</time>
      </trkpt>
      <trkpt lat="42.01322" lon="9.21905">
        <ele>1851.984</ele>
        <time>2020-03-19T19:56:00Z</time>
      </trkpt>
      <trkpt lat="42.01285" lon="9.21894">
        <ele>1854.818</ele>
        <time>2020-03-19T19:56:20Z</time>
      </trkpt>
      <trkpt lat="42.01249" lon="9.21898">
        <ele>1855.712</ele>
        <time>2020-03-19T19:56:40Z</time>
      </trkpt>
      <trkpt lat="42.01228" lon="9.21885">
        <ele>1857.265</ele>
        <time>2020-03-19T19:57:00Z</time>
      </trkpt>
      <trkpt lat="42.01171" lon="9.21861">
        <ele>1859.331</ele>
        <time>2020-03-19T19:57:20Z</time>
      </trkpt>
      <trkpt lat="42.01133" lon="9.21854">
        <ele>1858.059</ele>
        <time>2020-03-19T19:57:40Z</time>
      </trkpt>
      <trkpt lat="42.01077" lon="9.21869">
        <ele>1849.603</ele>
        <time>2020-03-19T19:58:00Z</time>
      </trkpt>
      <trkpt lat="42.01055" lon="9.21857">
        <ele>1848.323</ele>
        <time>2020-03-19T19:58:20Z</time>
      </trkpt>
      <trkpt lat="42.01039" lon="9.21858">
        <ele>1846.308</ele>
        <time>2020-03-19T19:58:40Z</time>
      </trkpt>
      <trkpt lat="42.01026" lon="9.21847">
        <ele>1844.379</ele>
        <time>2020-03-19T19:59:00Z</time>
      </trkpt>
      <trkpt lat="42.01017" lon="9.21847">
        <ele>1843.092</ele>
        <time>2020-03-19T19:59:20Z</time>
      </trkpt>
      <trkpt lat="42.01004" lon="9.21833">
        <ele>1840.884</ele>
        <time>2020-03-19T19:59:40Z</time>
      </trkpt>
      <trkpt lat="42.00958" lon="9.21829">
        <ele>1836.052</ele>
        <time>2020-03-19T20:00:00Z</time>
      </trkpt>
      <trkpt lat="42.00934" lon="9.21817">
        <ele>1833.156</ele>
        <time>2020-03-19T20:00:20Z</time>
      </trkpt>
      <trkpt lat="42.00919" lon="9.2182">
        <ele>1830.06</ele>
        <time>2020-03-19T20:00:40Z</time>
      </trkpt>
      <trkpt lat="42.00905" lon="9.21812">
        <ele>1823.513</ele>
        <time>2020-03-19T20:01:00Z</time>
      </trkpt>
      <trkpt lat="42.00889" lon="9.21816">
        <ele>1822.429</ele>
        <time>2020-03-19T20:01:20Z</time>
      </trkpt>
      <trkpt lat="42.00866" lon="9.21804">
        <ele>1820.888</ele>
        <time>2020-03-19T20:01:40Z</time>
      </trkpt>
      <trkpt lat="42.00848" lon="9.21814">
        <ele>1817.824</ele>
        <time>2020-03-19T20:02:00Z</time>
      </trkpt>
    </trkseg>
  </trk>
</gpx>